Time;durP1;ratioP1;P1;durP2;ratioP2;P2;SDS_P1;SDS_P2;PMS_P1;PMS_P2;Temp;Humidity;BMP_temperature;BMP_pressure;BME280_temperature;BME280_humidity;BME280_pressure;Samples;Min_cycle;Max_cycle;Signal;HPM_P1;HPM_P2
2023/03/12 00:00:46;;;;;;;6.28;3.75;;;2.50;99.90;;;;;;5063888;28;20013;-90
2023/03/12 00:03:12;;;;;;;6.43;4.03;;;2.50;99.90;;;;;;5078974;28;20056;-89
2023/03/12 00:05:39;;;;;;;6.57;3.72;;;2.60;99.90;;;;;;5062951;28;20082;-87
2023/03/12 00:08:05;;;;;;;6.70;3.72;;;2.60;99.90;;;;;;5060891;28;20470;-90
2023/03/12 00:10:31;;;;;;;7.65;4.28;;;2.60;99.90;;;;;;5062991;28;20098;-90
2023/03/12 00:12:57;;;;;;;6.22;3.60;;;2.60;99.90;;;;;;5062647;28;20055;-89
2023/03/12 00:15:23;;;;;;;5.72;3.40;;;2.70;99.90;;;;;;5062512;28;20082;-89
2023/03/12 00:17:51;;;;;;;5.85;3.88;;;2.60;99.90;;;;;;5061242;28;20032;-89
2023/03/12 00:20:17;;;;;;;7.05;4.00;;;2.70;99.90;;;;;;5061414;28;20107;-90
2023/03/12 00:22:43;;;;;;;6.00;3.47;;;2.60;99.90;;;;;;5061681;28;20537;-87
2023/03/12 00:25:13;;;;;;;6.35;3.78;;;2.60;99.90;;;;;;5079069;28;20371;-88
2023/03/12 00:27:40;;;;;;;6.32;3.47;;;2.70;99.90;;;;;;5058507;28;20032;-90
2023/03/12 00:30:06;;;;;;;6.70;3.22;;;2.70;99.90;;;;;;5061608;28;20020;-89
2023/03/12 00:32:32;;;;;;;6.45;3.22;;;2.70;99.90;;;;;;5059507;28;20024;-87
2023/03/12 00:34:58;;;;;;;6.22;3.55;;;2.70;99.90;;;;;;5059561;28;20020;-86
2023/03/12 00:37:24;;;;;;;6.65;3.42;;;2.70;99.90;;;;;;5057257;28;20481;-87
2023/03/12 00:39:49;;;;;;;7.90;3.80;;;2.70;99.90;;;;;;5058279;28;20039;-86
2023/03/12 00:42:15;;;;;;;6.28;3.22;;;2.70;99.90;;;;;;5060984;28;20482;-85
2023/03/12 00:44:42;;;;;;;6.10;3.63;;;2.70;99.90;;;;;;5060224;28;20494;-90
2023/03/12 00:47:10;;;;;;;6.25;3.40;;;2.70;99.90;;;;;;5058356;28;20025;-88
2023/03/12 00:49:36;;;;;;;8.32;3.47;;;2.70;99.90;;;;;;5062138;28;20020;-87
2023/03/12 00:52:02;;;;;;;5.95;3.10;;;2.70;99.90;;;;;;5077598;28;20448;-89
2023/03/12 00:54:28;;;;;;;5.80;3.08;;;2.70;99.90;;;;;;5077257;28;20052;-89
2023/03/12 00:56:53;;;;;;;7.55;2.83;;;2.80;99.90;;;;;;5061669;28;20036;-89
2023/03/12 00:59:19;;;;;;;6.35;2.60;;;2.80;99.90;;;;;;5061983;28;20040;-87
2023/03/12 01:01:45;;;;;;;5.88;2.72;;;2.80;99.90;;;;;;5061223;28;20032;-87
2023/03/12 01:04:11;;;;;;;4.63;2.80;;;2.80;99.90;;;;;;5060115;28;20189;-88
2023/03/12 01:06:37;;;;;;;4.00;2.50;;;2.80;99.90;;;;;;5069169;28;20477;-88
2023/03/12 01:09:05;;;;;;;4.63;2.67;;;2.90;99.90;;;;;;5061546;28;20162;-89
2023/03/12 01:11:31;;;;;;;4.55;2.70;;;2.90;99.90;;;;;;5066036;28;20024;-89
2023/03/12 01:13:59;;;;;;;5.32;2.58;;;2.90;99.90;;;;;;5066187;28;20131;-89
2023/03/12 01:16:29;;;;;;;5.38;2.60;;;2.90;99.90;;;;;;5082373;28;20307;-88
2023/03/12 01:18:59;;;;;;;5.20;2.45;;;2.90;99.90;;;;;;5061228;28;20056;-88
2023/03/12 01:21:25;;;;;;;4.25;2.25;;;2.90;99.90;;;;;;5065608;28;20338;-88
2023/03/12 01:23:51;;;;;;;4.28;2.10;;;2.90;99.90;;;;;;5058749;28;20500;-88
2023/03/12 01:26:17;;;;;;;3.85;2.22;;;2.80;99.90;;;;;;5061762;28;20056;-90
2023/03/12 01:28:43;;;;;;;3.88;2.20;;;2.80;99.90;;;;;;5064133;28;20032;-88
2023/03/12 01:31:12;;;;;;;5.30;2.22;;;2.80;99.90;;;;;;5064996;28;20103;-91
2023/03/12 01:33:37;;;;;;;5.30;2.33;;;2.80;99.90;;;;;;5065854;28;20701;-88
2023/03/12 01:36:04;;;;;;;4.90;2.55;;;2.80;99.90;;;;;;5066000;28;20127;-89
2023/03/12 01:38:30;;;;;;;4.93;2.22;;;2.80;99.90;;;;;;5066026;28;20031;-89
2023/03/12 01:40:55;;;;;;;5.18;2.28;;;2.80;99.90;;;;;;5065141;28;20036;-90
2023/03/12 01:43:31;;;;;;;5.00;2.50;;;2.80;99.90;;;;;;5065195;28;20430;-90
2023/03/12 01:46:15;;;;;;;4.68;2.38;;;2.90;99.90;;;;;;5065064;28;20096;-91
2023/03/12 01:49:07;;;;;;;4.97;2.10;;;2.80;99.90;;;;;;5065186;28;20049;-90
2023/03/12 01:51:39;;;;;;;5.03;2.20;;;2.80;99.90;;;;;;5054828;28;20083;-88
2023/03/12 01:54:09;;;;;;;4.38;2.08;;;2.80;99.90;;;;;;5081083;28;20040;-86
2023/03/12 01:56:37;;;;;;;6.82;1.95;;;2.80;99.90;;;;;;5061511;28;20027;-89
2023/03/12 01:59:11;;;;;;;6.15;2.08;;;2.80;99.90;;;;;;5060520;28;20477;-90
2023/03/12 02:01:39;;;;;;;4.20;1.92;;;2.70;99.90;;;;;;5065093;28;20524;-88
2023/03/12 02:04:04;;;;;;;3.08;1.65;;;2.70;99.90;;;;;;5063135;28;20044;-87
2023/03/12 02:07:01;;;;;;;4.50;1.90;;;2.70;99.90;;;;;;5064818;28;20035;-93
2023/03/12 02:09:32;;;;;;;3.65;1.73;;;2.70;99.90;;;;;;5052831;28;20378;-89
2023/03/12 02:12:01;;;;;;;3.90;1.60;;;2.70;99.90;;;;;;5063203;28;20020;-89
2023/03/12 02:14:26;;;;;;;3.15;1.67;;;2.70;99.90;;;;;;5064030;28;20051;-88
2023/03/12 02:16:54;;;;;;;3.80;1.50;;;2.70;99.90;;;;;;5064432;28;20570;-88
2023/03/12 02:19:31;;;;;;;2.80;1.63;;;2.70;99.90;;;;;;5059501;28;20386;-89
2023/03/12 02:21:58;;;;;;;4.03;1.38;;;2.70;99.90;;;;;;5081083;28;20029;-88
2023/03/12 02:24:34;;;;;;;5.30;2.33;;;2.70;99.90;;;;;;5058959;28;20062;-90
2023/03/12 02:27:01;;;;;;;3.83;1.65;;;2.70;99.90;;;;;;5081910;28;20504;-88
2023/03/12 02:29:31;;;;;;;5.28;1.80;;;2.70;99.90;;;;;;5060666;28;20115;-90
2023/03/12 02:31:59;;;;;;;4.38;1.55;;;2.80;99.90;;;;;;5062726;28;20078;-88
2023/03/12 02:34:25;;;;;;;3.72;1.40;;;2.80;99.90;;;;;;5064101;28;20029;-88
2023/03/12 02:36:50;;;;;;;3.80;1.83;;;2.80;99.90;;;;;;5064515;28;20016;-89
2023/03/12 02:39:16;;;;;;;4.43;1.90;;;2.80;99.90;;;;;;5065480;28;20446;-91
2023/03/12 02:41:45;;;;;;;3.08;1.55;;;2.80;99.90;;;;;;5066835;28;20101;-89
2023/03/12 02:44:16;;;;;;;3.80;1.83;;;2.80;99.90;;;;;;5058551;28;20154;-89
2023/03/12 02:46:51;;;;;;;4.53;1.90;;;2.80;99.90;;;;;;5066018;28;20031;-88
2023/03/12 02:49:22;;;;;;;3.30;1.67;;;2.90;99.90;;;;;;5061609;28;20225;-89
2023/03/12 02:51:50;;;;;;;3.30;2.00;;;2.80;99.90;;;;;;5064332;28;20025;-88
2023/03/12 02:54:18;;;;;;;4.28;2.05;;;2.90;99.90;;;;;;5058221;28;20048;-88
2023/03/12 02:56:44;;;;;;;4.90;2.33;;;2.90;99.90;;;;;;5062680;28;20036;-88
2023/03/12 02:59:12;;;;;;;7.93;2.22;;;2.90;99.90;;;;;;5059122;28;20046;-89
2023/03/12 03:01:38;;;;;;;4.22;2.22;;;2.90;99.90;;;;;;5064816;28;20024;-88
2023/03/12 03:04:05;;;;;;;3.65;2.35;;;2.90;99.90;;;;;;5064878;28;20452;-89
2023/03/12 03:06:31;;;;;;;3.97;1.73;;;2.90;99.90;;;;;;5059208;28;20060;-89
2023/03/12 03:08:58;;;;;;;4.65;2.13;;;2.90;99.90;;;;;;5063806;28;20058;-90
2023/03/12 03:11:24;;;;;;;5.55;2.00;;;2.90;99.90;;;;;;5061845;28;20021;-89
2023/03/12 03:14:03;;;;;;;4.47;1.95;;;3.00;99.90;;;;;;5064793;28;20040;-88
2023/03/12 03:16:32;;;;;;;4.78;1.65;;;2.90;99.90;;;;;;5063366;28;20020;-88
2023/03/12 03:18:58;;;;;;;4.50;2.10;;;2.90;99.90;;;;;;5064164;28;20021;-88
2023/03/12 03:21:23;;;;;;;4.45;1.88;;;3.00;99.90;;;;;;5065121;28;20514;-90
2023/03/12 03:23:50;;;;;;;3.53;1.92;;;2.90;99.90;;;;;;5060512;28;20024;-89
2023/03/12 03:26:18;;;;;;;3.85;1.70;;;2.90;99.90;;;;;;5061009;28;20068;-89
2023/03/12 03:28:44;;;;;;;4.65;1.70;;;2.90;99.90;;;;;;5063304;28;20078;-89
2023/03/12 03:31:09;;;;;;;4.47;2.22;;;2.90;99.90;;;;;;5058948;28;20785;-90
2023/03/12 03:33:37;;;;;;;4.03;1.80;;;2.90;99.90;;;;;;5063847;28;20040;-89
2023/03/12 03:36:03;;;;;;;4.53;2.00;;;3.00;99.90;;;;;;5066068;28;20095;-89
2023/03/12 03:38:30;;;;;;;4.70;1.80;;;2.90;99.90;;;;;;5058756;28;20041;-88
2023/03/12 03:40:56;;;;;;;5.93;2.20;;;2.90;99.90;;;;;;5057880;28;20020;-88
2023/03/12 03:43:22;;;;;;;5.43;1.85;;;2.90;99.90;;;;;;5061978;28;20024;-89
2023/03/12 03:45:48;;;;;;;4.25;1.80;;;2.90;99.90;;;;;;5060793;28;20605;-88
2023/03/12 03:48:14;;;;;;;3.28;1.60;;;3.00;99.90;;;;;;5061867;28;20478;-87
2023/03/12 03:50:40;;;;;;;5.13;2.25;;;3.00;99.90;;;;;;5062252;28;20027;-88
2023/03/12 03:53:07;;;;;;;4.05;2.05;;;3.00;99.90;;;;;;5079417;28;20067;-89
2023/03/12 03:55:38;;;;;;;3.97;1.50;;;3.00;99.90;;;;;;5058322;28;20058;-87
2023/03/12 03:58:04;;;;;;;4.05;1.58;;;2.90;99.90;;;;;;5062284;28;20521;-88
2023/03/12 04:00:29;;;;;;;4.95;1.70;;;3.00;99.90;;;;;;5058260;28;20105;-90
2023/03/12 04:02:55;;;;;;;3.05;1.63;;;3.00;99.90;;;;;;5058839;28;20121;-89
2023/03/12 04:05:21;;;;;;;5.13;1.65;;;2.90;99.90;;;;;;5064308;28;20021;-88
2023/03/12 04:07:47;;;;;;;4.65;1.75;;;3.00;99.90;;;;;;5063280;28;20478;-88
2023/03/12 04:10:12;;;;;;;4.75;1.83;;;3.00;99.90;;;;;;5062935;28;20028;-89
2023/03/12 04:12:38;;;;;;;5.22;2.08;;;3.00;99.90;;;;;;5063862;28;20386;-88
2023/03/12 04:15:05;;;;;;;8.93;2.00;;;3.00;99.90;;;;;;5064290;28;20169;-87
2023/03/12 04:17:30;;;;;;;8.05;2.33;;;3.10;99.90;;;;;;5063962;28;20551;-87
2023/03/12 04:19:56;;;;;;;4.47;1.88;;;3.10;99.90;;;;;;5081017;28;20066;-88
2023/03/12 04:22:22;;;;;;;5.88;2.22;;;3.10;99.90;;;;;;5063219;28;20111;-87
2023/03/12 04:24:47;;;;;;;4.88;1.70;;;3.20;99.90;;;;;;5062054;28;20047;-87
2023/03/12 04:27:13;;;;;;;6.72;1.98;;;3.20;99.90;;;;;;5057327;28;20039;-89
2023/03/12 04:29:39;;;;;;;4.70;1.90;;;3.20;99.90;;;;;;5062938;28;20035;-87
2023/03/12 04:32:05;;;;;;;5.78;2.00;;;3.20;99.90;;;;;;5063165;28;20032;-89
2023/03/12 04:34:31;;;;;;;4.93;2.22;;;3.30;99.90;;;;;;5060944;28;20044;-89
2023/03/12 04:36:57;;;;;;;3.60;1.92;;;3.30;99.90;;;;;;5058937;28;20489;-88
2023/03/12 04:39:22;;;;;;;4.75;2.20;;;3.30;99.90;;;;;;5063316;28;20031;-88
2023/03/12 04:41:48;;;;;;;4.82;2.10;;;3.30;99.90;;;;;;5066421;28;20462;-88
2023/03/12 04:44:14;;;;;;;3.17;1.60;;;3.30;99.90;;;;;;5067533;28;20037;-88
2023/03/12 04:46:40;;;;;;;6.97;2.00;;;3.40;99.90;;;;;;5065349;28;20031;-88
2023/03/12 04:49:05;;;;;;;5.25;2.00;;;3.40;99.90;;;;;;5066421;28;20067;-88
2023/03/12 04:51:31;;;;;;;5.78;1.88;;;3.40;99.90;;;;;;5065964;28;20052;-88
2023/03/12 04:53:57;;;;;;;5.65;2.25;;;3.40;99.90;;;;;;5066997;28;21960;-89
2023/03/12 04:56:23;;;;;;;6.50;2.10;;;3.30;99.90;;;;;;5062584;28;20059;-89
2023/03/12 04:58:49;;;;;;;7.93;2.58;;;3.30;99.90;;;;;;5066849;28;20024;-90
2023/03/12 05:01:28;;;;;;;5.78;2.72;;;3.40;99.90;;;;;;5067473;28;20408;-90
2023/03/12 05:03:54;;;;;;;4.53;1.77;;;3.40;99.90;;;;;;5062296;28;20057;-89
2023/03/12 05:06:20;;;;;;;4.07;1.80;;;3.40;99.90;;;;;;5060784;28;20390;-89
2023/03/12 05:08:46;;;;;;;4.55;1.80;;;3.40;99.90;;;;;;5066900;28;20029;-89
2023/03/12 05:11:12;;;;;;;5.47;2.20;;;3.40;99.90;;;;;;5066168;28;20393;-90
2023/03/12 05:13:38;;;;;;;6.03;2.00;;;3.30;99.90;;;;;;5065766;28;20489;-89
2023/03/12 05:16:04;;;;;;;6.38;2.25;;;3.40;99.90;;;;;;5061847;28;20020;-89
2023/03/12 05:18:30;;;;;;;5.90;2.55;;;3.40;99.90;;;;;;5062994;28;20029;-88
2023/03/12 05:21:00;;;;;;;6.38;2.33;;;3.40;99.90;;;;;;5067103;28;20028;-91
2023/03/12 05:23:26;;;;;;;4.32;2.08;;;3.30;99.90;;;;;;5065709;28;20025;-89
2023/03/12 05:25:55;;;;;;;5.57;2.42;;;3.30;99.90;;;;;;5061052;28;20043;-89
2023/03/12 05:28:26;;;;;;;4.65;2.25;;;3.30;99.90;;;;;;5063132;28;20107;-89
2023/03/12 05:30:53;;;;;;;6.55;2.67;;;3.30;99.90;;;;;;5062257;28;20025;-89
2023/03/12 05:33:19;;;;;;;6.05;2.47;;;3.30;99.90;;;;;;5062912;28;20028;-90
2023/03/12 05:35:44;;;;;;;8.30;2.97;;;3.20;99.90;;;;;;5067764;28;20450;-89
2023/03/12 05:38:10;;;;;;;6.50;2.88;;;3.20;99.90;;;;;;5060016;28;20024;-90
2023/03/12 05:40:36;;;;;;;8.45;2.92;;;3.20;99.90;;;;;;5064685;28;20498;-88
2023/03/12 05:43:02;;;;;;;6.93;2.90;;;3.20;99.90;;;;;;5063698;28;20031;-90
2023/03/12 05:45:28;;;;;;;4.70;2.63;;;3.10;99.90;;;;;;5062361;28;20494;-90
2023/03/12 05:47:53;;;;;;;8.65;3.67;;;3.10;99.90;;;;;;5082724;28;20381;-88
2023/03/12 05:50:19;;;;;;;6.13;2.80;;;3.10;99.90;;;;;;5061871;28;20513;-89
2023/03/12 05:52:44;;;;;;;7.13;2.95;;;3.10;99.90;;;;;;5063532;28;20029;-89
2023/03/12 05:55:10;;;;;;;7.88;2.63;;;3.10;99.90;;;;;;5083294;28;20385;-89
2023/03/12 05:57:36;;;;;;;7.57;3.70;;;3.10;99.90;;;;;;5065618;28;20829;-91
2023/03/12 06:00:02;;;;;;;7.00;3.08;;;3.10;99.90;;;;;;5065491;28;20031;-91
2023/03/12 06:02:28;;;;;;;5.35;3.22;;;3.10;99.90;;;;;;5063062;28;20106;-87
2023/03/12 06:04:54;;;;;;;6.50;3.00;;;3.10;99.90;;;;;;5063992;28;20401;-89
2023/03/12 06:07:19;;;;;;;9.32;4.55;;;3.20;99.90;;;;;;5061614;28;20130;-88
2023/03/12 06:09:45;;;;;;;9.32;3.03;;;3.10;99.90;;;;;;5061599;28;20075;-88
2023/03/12 06:12:10;;;;;;;7.07;3.40;;;3.10;99.90;;;;;;5063155;28;20017;-88
2023/03/12 06:14:36;;;;;;;7.18;3.15;;;3.10;99.90;;;;;;5065378;28;20503;-88
2023/03/12 06:17:02;;;;;;;7.45;3.17;;;3.20;99.90;;;;;;5064748;28;20032;-88
2023/03/12 06:19:27;;;;;;;8.05;3.38;;;3.20;99.90;;;;;;5079434;28;20025;-87
2023/03/12 06:21:53;;;;;;;7.90;3.40;;;3.20;99.90;;;;;;5062715;28;20028;-89
2023/03/12 06:24:19;;;;;;;6.60;3.10;;;3.20;99.90;;;;;;5057908;28;20024;-88
2023/03/12 06:26:44;;;;;;;6.22;3.05;;;3.10;99.90;;;;;;5063626;28;20019;-88
2023/03/12 06:29:10;;;;;;;6.25;2.92;;;3.10;99.90;;;;;;5059152;28;20036;-89
2023/03/12 06:31:40;;;;;;;7.20;3.22;;;3.10;99.90;;;;;;5063039;28;20118;-88
2023/03/12 06:34:07;;;;;;;6.07;3.00;;;3.00;99.90;;;;;;5064334;28;20048;-89
2023/03/12 06:36:33;;;;;;;5.82;2.72;;;3.00;99.90;;;;;;5061227;28;20027;-89
2023/03/12 06:38:58;;;;;;;7.40;3.13;;;2.90;99.90;;;;;;5059770;28;20024;-88
2023/03/12 06:41:24;;;;;;;5.75;2.70;;;2.90;99.90;;;;;;5062373;28;20086;-87
2023/03/12 06:43:50;;;;;;;6.80;2.88;;;2.80;99.90;;;;;;5064495;28;20032;-89
2023/03/12 06:46:20;;;;;;;6.03;3.28;;;2.80;99.90;;;;;;5065921;28;20054;-86
2023/03/12 06:48:46;;;;;;;8.50;3.08;;;2.90;99.90;;;;;;5061286;28;20050;-87
2023/03/12 06:51:14;;;;;;;8.70;4.35;;;2.90;99.90;;;;;;5059059;28;20021;-88
2023/03/12 06:53:39;;;;;;;8.85;3.05;;;2.90;99.90;;;;;;5064860;28;20040;-87
2023/03/12 06:56:05;;;;;;;7.30;2.92;;;2.90;99.90;;;;;;5060918;28;20025;-88
2023/03/12 06:58:31;;;;;;;10.20;3.85;;;3.00;99.90;;;;;;5063444;28;20160;-88
2023/03/12 07:00:57;;;;;;;8.98;3.78;;;3.10;99.90;;;;;;5059165;28;20115;-89
2023/03/12 07:03:23;;;;;;;9.25;3.90;;;3.10;99.90;;;;;;5063470;28;20063;-88
2023/03/12 07:05:50;;;;;;;8.75;4.13;;;3.10;99.90;;;;;;5064120;28;20025;-89
2023/03/12 07:08:17;;;;;;;6.47;3.38;;;3.20;99.90;;;;;;5061450;28;20028;-91
2023/03/12 07:10:43;;;;;;;7.22;3.90;;;3.20;99.90;;;;;;5063657;28;20024;-89
2023/03/12 07:13:09;;;;;;;7.32;3.60;;;3.20;99.90;;;;;;5059088;28;20058;-90
2023/03/12 07:15:34;;;;;;;8.38;3.83;;;3.30;99.90;;;;;;5059874;28;20100;-90
2023/03/12 07:18:04;;;;;;;7.60;3.80;;;3.30;99.90;;;;;;5059987;28;20067;-89
2023/03/12 07:20:36;;;;;;;7.80;3.80;;;3.40;99.90;;;;;;5061109;28;20111;-88
2023/03/12 07:23:01;;;;;;;8.48;4.30;;;3.40;99.90;;;;;;5064013;28;20025;-88
2023/03/12 07:25:27;;;;;;;10.00;3.85;;;3.40;99.90;;;;;;5065313;28;20070;-88
2023/03/12 07:27:53;;;;;;;9.27;3.95;;;3.40;99.90;;;;;;5063950;28;20133;-88
2023/03/12 07:30:18;;;;;;;9.70;4.22;;;3.40;99.90;;;;;;5064201;28;20081;-88
2023/03/12 07:32:44;;;;;;;8.30;3.78;;;3.40;99.90;;;;;;5070010;28;20039;-90
2023/03/12 07:35:10;;;;;;;10.45;4.22;;;3.40;99.90;;;;;;5062002;28;20025;-90
2023/03/12 07:37:35;;;;;;;7.90;3.70;;;3.40;99.90;;;;;;5059609;28;20032;-88
2023/03/12 07:40:02;;;;;;;9.75;3.72;;;3.30;99.90;;;;;;5064374;28;20028;-88
2023/03/12 07:42:33;;;;;;;7.72;4.60;;;3.40;99.90;;;;;;5061394;28;20016;-89
2023/03/12 07:44:59;;;;;;;7.03;3.80;;;3.30;99.90;;;;;;5061957;28;20028;-87
2023/03/12 07:47:24;;;;;;;8.23;3.88;;;3.30;99.90;;;;;;5060525;28;20036;-88
2023/03/12 07:49:50;;;;;;;6.72;4.15;;;3.30;99.90;;;;;;5080356;28;20482;-87
2023/03/12 07:52:17;;;;;;;8.35;4.03;;;3.40;99.90;;;;;;5063635;28;20517;-87
2023/03/12 07:54:42;;;;;;;9.90;5.07;;;3.30;99.90;;;;;;5062985;28;20041;-88
2023/03/12 07:57:08;;;;;;;6.50;3.60;;;3.30;99.90;;;;;;5058057;28;20027;-89
2023/03/12 07:59:34;;;;;;;8.52;4.60;;;3.30;99.90;;;;;;5058642;28;20021;-89
2023/03/12 08:01:59;;;;;;;8.18;4.05;;;3.40;99.90;;;;;;5064365;28;20074;-88
2023/03/12 08:04:25;;;;;;;6.20;4.18;;;3.50;99.90;;;;;;5065540;28;20056;-87
2023/03/12 08:06:51;;;;;;;7.00;4.85;;;3.50;99.90;;;;;;5064391;28;20058;-89
2023/03/12 08:09:16;;;;;;;8.77;4.88;;;3.50;99.90;;;;;;5060462;28;20108;-88
2023/03/12 08:11:42;;;;;;;7.20;4.50;;;3.50;99.90;;;;;;5061809;28;20098;-89
2023/03/12 08:14:10;;;;;;;7.10;4.30;;;3.50;99.90;;;;;;5068966;28;20356;-89
2023/03/12 08:16:36;;;;;;;7.65;4.03;;;3.50;99.90;;;;;;5064626;28;20032;-90
2023/03/12 08:19:02;;;;;;;7.75;4.47;;;3.50;99.90;;;;;;5070394;28;20027;-90
2023/03/12 08:21:27;;;;;;;9.65;4.50;;;3.50;99.90;;;;;;5065555;28;20052;-89
2023/03/12 08:23:53;;;;;;;6.93;4.10;;;3.50;99.90;;;;;;5066449;28;20164;-89
2023/03/12 08:26:24;;;;;;;8.40;4.40;;;3.50;99.90;;;;;;5067555;28;20155;-90
2023/03/12 08:28:49;;;;;;;7.70;5.13;;;3.60;99.90;;;;;;5062021;28;20024;-88
2023/03/12 08:31:15;;;;;;;6.38;4.47;;;3.60;99.90;;;;;;5065717;28;20113;-90
2023/03/12 08:33:42;;;;;;;8.98;5.35;;;3.60;99.90;;;;;;5062995;28;20051;-88
2023/03/12 08:36:08;;;;;;;6.13;4.32;;;3.70;99.90;;;;;;5083409;28;20013;-88
2023/03/12 08:38:34;;;;;;;6.20;4.63;;;3.60;99.90;;;;;;5060743;28;20058;-88
2023/03/12 08:41:00;;;;;;;7.40;4.28;;;3.70;99.90;;;;;;5067559;28;20021;-87
2023/03/12 08:43:26;;;;;;;8.52;4.95;;;3.70;99.90;;;;;;5065878;28;20023;-89
2023/03/12 08:45:59;;;;;;;6.70;4.43;;;3.80;99.90;;;;;;5081220;28;20023;-87
2023/03/12 08:48:25;;;;;;;5.35;3.53;;;3.80;99.90;;;;;;5062762;28;20044;-88
2023/03/12 08:50:54;;;;;;;6.70;4.13;;;3.90;99.90;;;;;;5066384;28;20016;-89
2023/03/12 08:53:20;;;;;;;5.82;3.50;;;3.90;99.90;;;;;;5059956;28;20412;-91
2023/03/12 08:55:48;;;;;;;6.05;4.32;;;4.00;99.90;;;;;;5065664;28;20151;-89
2023/03/12 08:58:23;;;;;;;10.13;4.30;;;4.00;99.90;;;;;;5066573;28;20028;-90
2023/03/12 09:00:50;;;;;;;7.70;4.65;;;4.00;99.90;;;;;;5065637;28;20120;-90
2023/03/12 09:03:16;;;;;;;6.88;4.05;;;4.00;99.90;;;;;;5064972;28;20044;-91
2023/03/12 09:05:42;;;;;;;4.82;3.92;;;4.10;99.90;;;;;;5066357;28;20036;-89
2023/03/12 09:08:11;;;;;;;5.30;3.78;;;4.10;99.90;;;;;;5081681;28;20039;-91
2023/03/12 09:10:47;;;;;;;5.25;3.88;;;4.10;99.90;;;;;;5067442;28;20427;-90
2023/03/12 09:13:15;;;;;;;4.70;3.67;;;4.10;99.90;;;;;;5067065;28;20619;-89
2023/03/12 09:15:43;;;;;;;5.25;3.85;;;4.20;99.90;;;;;;5066808;28;20461;-89
2023/03/12 09:18:11;;;;;;;6.85;3.65;;;4.20;99.90;;;;;;5080928;28;20159;-89
2023/03/12 09:20:37;;;;;;;8.75;4.55;;;4.20;99.90;;;;;;5066358;28;20134;-90
2023/03/12 09:23:05;;;;;;;7.32;4.70;;;4.30;99.90;;;;;;5062103;28;20123;-89
2023/03/12 09:26:32;;;;;;;8.02;5.28;;;4.30;99.90;;;;;;5063841;28;20071;-92
2023/03/12 09:28:58;;;;;;;8.50;5.60;;;4.40;99.90;;;;;;5066282;28;20027;-90
2023/03/12 09:31:24;;;;;;;8.50;5.55;;;4.40;99.90;;;;;;5059914;28;20055;-86
2023/03/12 09:33:57;;;;;;;7.45;5.05;;;4.40;99.90;;;;;;5065392;28;20032;-89
2023/03/12 09:36:22;;;;;;;6.93;4.90;;;4.50;99.90;;;;;;5062152;28;20020;-87
2023/03/12 09:38:48;;;;;;;8.13;4.90;;;4.50;99.90;;;;;;5061887;28;20024;-88
2023/03/12 09:41:28;;;;;;;6.20;4.35;;;4.60;99.90;;;;;;5061043;28;20051;-88
2023/03/12 09:44:06;;;;;;;7.60;4.85;;;4.60;99.90;;;;;;5060599;28;20117;-90
2023/03/12 09:46:38;;;;;;;7.43;4.97;;;4.70;99.90;;;;;;5061567;28;20017;-88
2023/03/12 09:49:34;;;;;;;7.57;5.03;;;4.80;99.90;;;;;;5060978;28;20016;-89
2023/03/12 09:52:02;;;;;;;8.25;5.40;;;4.90;99.90;;;;;;5082072;28;20016;-89
2023/03/12 09:54:38;;;;;;;8.45;6.03;;;4.90;99.90;;;;;;5061180;28;20047;-89
2023/03/12 09:57:15;;;;;;;12.40;8.10;;;5.00;99.90;;;;;;5062186;28;20047;-88
2023/03/12 09:59:40;;;;;;;10.43;7.10;;;5.10;99.90;;;;;;5065967;28;20089;-90
2023/03/12 10:02:30;;;;;;;10.38;7.45;;;5.20;99.90;;;;;;5063504;28;20028;-89
2023/03/12 10:05:08;;;;;;;10.80;7.25;;;5.20;99.90;;;;;;5065913;28;20127;-88
2023/03/12 10:07:41;;;;;;;12.23;7.55;;;5.30;99.90;;;;;;5063922;28;20564;-89
2023/03/12 10:10:15;;;;;;;;;;;5.30;99.90;;;;;;5062059;28;20029;-90
2023/03/12 10:13:05;;;;;;;14.82;9.07;;;5.40;99.90;;;;;;5078673;28;19917;-88
2023/03/12 10:15:58;;;;;;;13.32;8.48;;;5.40;99.90;;;;;;5062912;28;20058;-88
2023/03/12 10:18:34;;;;;;;12.52;9.27;;;5.50;99.90;;;;;;5063820;28;20028;-89
2023/03/12 10:21:03;;;;;;;16.08;11.18;;;5.60;99.90;;;;;;5058909;28;20119;-88
2023/03/12 10:23:50;;;;;;;12.85;8.85;;;5.70;99.90;;;;;;5081644;28;20048;-88
2023/03/12 10:26:24;;;;;;;11.70;9.18;;;5.70;99.90;;;;;;5061734;28;20039;-89
2023/03/12 10:28:59;;;;;;;17.55;10.60;;;5.80;99.90;;;;;;5065619;28;20021;-89
2023/03/12 10:31:30;;;;;;;17.67;11.88;;;5.90;99.90;;;;;;5059006;28;20027;-88
2023/03/12 10:33:58;;;;;;;13.38;10.00;;;5.90;99.90;;;;;;5063599;28;20029;-90
2023/03/12 10:36:35;;;;;;;16.80;11.43;;;6.00;99.90;;;;;;5058119;28;20089;-90
2023/03/12 10:39:01;;;;;;;16.77;12.25;;;6.10;99.90;;;;;;5059981;28;20386;-89
2023/03/12 10:41:31;;;;;;;14.05;10.57;;;6.10;99.90;;;;;;5069034;28;20020;-88
2023/03/12 10:44:06;;;;;;;17.85;11.52;;;6.20;99.90;;;;;;5064279;28;20023;-90
2023/03/12 10:46:55;;;;;;;16.67;11.25;;;6.30;99.90;;;;;;5062797;28;20053;-89
2023/03/12 10:49:20;;;;;;;15.73;10.30;;;6.40;99.90;;;;;;5062443;28;20029;-88
2023/03/12 10:52:06;;;;;;;16.58;11.23;;;6.50;99.90;;;;;;5081352;28;20028;-90
2023/03/12 10:54:33;;;;;;;17.33;12.35;;;6.60;99.90;;;;;;5060921;28;20040;-87
2023/03/12 10:57:00;;;;;;;15.93;11.85;;;6.70;99.90;;;;;;5063676;28;20131;-88
2023/03/12 10:59:29;;;;;;;16.27;12.10;;;6.80;99.90;;;;;;5065205;28;20043;-91
2023/03/12 11:01:55;;;;;;;19.50;14.38;;;6.90;99.90;;;;;;5064463;28;20090;-89
2023/03/12 11:04:25;;;;;;;19.15;14.55;;;7.00;99.90;;;;;;5061135;28;20094;-90
2023/03/12 11:07:12;;;;;;;20.73;15.10;;;7.10;99.90;;;;;;5060220;28;20017;-90
2023/03/12 11:09:38;;;;;;;22.25;14.80;;;7.20;99.90;;;;;;5081419;28;20048;-91
2023/03/12 11:12:29;;;;;;;22.63;14.77;;;7.30;99.90;;;;;;5057848;28;20052;-88
2023/03/12 11:14:55;;;;;;;19.25;14.20;;;7.40;99.90;;;;;;5080839;28;20029;-87
2023/03/12 11:17:27;;;;;;;19.05;13.85;;;7.50;99.90;;;;;;5069463;28;20055;-89
2023/03/12 11:19:53;;;;;;;25.13;15.88;;;7.50;99.90;;;;;;5059491;28;20041;-89
2023/03/12 11:22:33;;;;;;;18.77;14.27;;;7.60;99.90;;;;;;5061426;28;20114;-88
2023/03/12 11:25:06;;;;;;;20.17;14.30;;;7.70;99.90;;;;;;5060771;28;20028;-89
2023/03/12 11:27:46;;;;;;;23.77;14.83;;;7.80;99.90;;;;;;5063217;28;20077;-89
2023/03/12 11:30:20;;;;;;;21.67;14.32;;;7.90;99.90;;;;;;5058695;28;20298;-87
2023/03/12 11:32:50;;;;;;;26.42;14.38;;;8.00;99.90;;;;;;5058395;28;20732;-90
2023/03/12 11:35:21;;;;;;;21.67;14.55;;;8.10;99.90;;;;;;5061225;28;20039;-85
2023/03/12 11:37:56;;;;;;;22.55;13.75;;;8.20;99.90;;;;;;5063593;28;20020;-89
2023/03/12 11:40:55;;;;;;;28.73;14.05;;;8.30;99.90;;;;;;5061727;28;20028;-88
2023/03/12 11:44:00;;;;;;;25.50;12.80;;;8.50;99.90;;;;;;5062594;28;20036;-89
2023/03/12 11:46:48;;;;;;;24.33;12.10;;;8.60;99.90;;;;;;5080144;28;20109;-88
2023/03/12 11:49:34;;;;;;;23.20;11.75;;;8.80;99.90;;;;;;5080605;28;20105;-88
2023/03/12 11:52:20;;;;;;;27.17;11.65;;;8.80;99.90;;;;;;5060231;28;20402;-90
2023/03/12 11:55:16;;;;;;;21.80;10.07;;;8.90;99.90;;;;;;5062109;28;20040;-91
2023/03/12 11:58:01;;;;;;;29.67;9.63;;;8.90;99.90;;;;;;5065147;28;20037;-88
2023/03/12 12:00:48;;;;;;;28.27;9.43;;;9.00;99.90;;;;;;5062675;28;20037;-91
2023/03/12 12:03:41;;;;;;;23.02;9.60;;;9.00;99.90;;;;;;5059340;28;20056;-90
2023/03/12 12:06:26;;;;;;;;;;;9.00;99.90;;;;;;5059909;28;20148;-91
2023/03/12 12:08:57;;;;;;;21.27;8.00;;;9.00;99.90;;;;;;5064454;28;19955;-89
2023/03/12 12:11:44;;;;;;;25.00;8.10;;;9.00;99.90;;;;;;5063804;28;20032;-89
2023/03/12 12:14:33;;;;;;;23.30;6.93;;;9.00;99.90;;;;;;5060525;28;20052;-91
2023/03/12 12:17:17;;;;;;;24.50;7.47;;;9.00;99.90;;;;;;5063114;28;20028;-92
2023/03/12 12:20:26;;;;;;;23.60;6.90;;;9.00;99.90;;;;;;5061261;28;20058;-90
2023/03/12 12:23:22;;;;;;;26.70;6.70;;;9.00;99.90;;;;;;5078711;28;20033;-90
2023/03/12 12:25:56;;;;;;;22.83;7.43;;;9.00;99.90;;;;;;5059884;28;20040;-88
2023/03/12 12:28:22;;;;;;;22.02;6.88;;;9.10;99.90;;;;;;5061654;28;20025;-89
2023/03/12 12:30:59;;;;;;;24.77;7.93;;;9.20;99.90;;;;;;5057571;28;20025;-90
2023/03/12 12:33:49;;;;;;;30.77;7.25;;;9.30;99.90;;;;;;5059991;28;20170;-90
2023/03/12 12:36:16;;;;;;;24.45;6.93;;;9.30;99.90;;;;;;5058175;28;20552;-90
2023/03/12 12:38:50;;;;;;;30.65;7.45;;;9.20;99.90;;;;;;5058358;28;20070;-89
2023/03/12 12:41:20;;;;;;;25.92;7.88;;;9.30;99.90;;;;;;5060290;28;20036;-88
2023/03/12 12:43:47;;;;;;;21.70;6.60;;;9.20;99.90;;;;;;5060249;28;20025;-88
2023/03/12 12:46:21;;;;;;;23.92;7.32;;;9.20;99.90;;;;;;5061063;28;20029;-88
2023/03/12 12:48:58;;;;;;;33.10;7.25;;;9.20;99.90;;;;;;5060283;28;20362;-88
2023/03/12 12:51:30;;;;;;;28.13;7.72;;;9.20;99.90;;;;;;5057287;28;20029;-89
2023/03/12 12:54:05;;;;;;;27.77;6.70;;;9.30;99.90;;;;;;5060109;28;20055;-89
2023/03/12 12:56:46;;;;;;;26.85;6.70;;;9.30;99.90;;;;;;5059897;28;20151;-90
2023/03/12 12:59:31;;;;;;;20.75;6.32;;;9.40;99.90;;;;;;5059487;28;20036;-90
2023/03/12 13:01:58;;;;;;;30.58;7.20;;;9.40;99.90;;;;;;5062439;28;20028;-90
2023/03/12 13:04:38;;;;;;;27.45;7.35;;;9.40;99.90;;;;;;5080248;28;20119;-90
2023/03/12 13:07:19;;;;;;;23.98;5.85;;;9.40;99.90;;;;;;5064261;28;20033;-91